Schedule Details

Flight Number: CPX217
Departure: Sacramento International Airport (KSMF) at 0520 UTC
Arrival: Chicago/Rockford International Airport (KRFD) at 0955 UTC
Route: SCTWN2 RALEY INSLO DTA DBL J60 IOW PLL


Current Weather Information
KSMF 180553Z 28005KT 10SM FEW070 04/02 A3009 RMK AO2 SLP188 60000 T00440022 10100 20039 53017
KRFD 180633Z 35011KT 1 1/2SM -SN BR OVC030 M07/M09 A3004 RMK AO2 P0001 T10671089

Route Map